createdAt,value
2023-02-17T00:01:32.822Z,99724.91
2023-02-17T00:04:00.908Z,99694.16
2023-02-17T00:06:31.655Z,99690.25
2023-02-17T00:09:00.431Z,99686.38
2023-02-17T00:11:29.041Z,99684.97
2023-02-17T00:13:57.171Z,99683.25
2023-02-17T00:16:26.830Z,99684.69
2023-02-17T00:19:01.314Z,99690.63
2023-02-17T00:21:31.711Z,99688.16
2023-02-17T00:24:00.496Z,99670.22
2023-02-17T00:26:28.536Z,99696.34
2023-02-17T00:28:58.495Z,99692.56
2023-02-17T00:31:27.153Z,99697.91
2023-02-17T00:33:56.164Z,99690.28
2023-02-17T00:36:25.402Z,99699.63
2023-02-17T00:38:56.001Z,99696.13
2023-02-17T00:41:25.953Z,99708.00
2023-02-17T00:43:53.873Z,99708.94
2023-02-17T00:46:24.046Z,99703.81
2023-02-17T00:48:53.642Z,99688.03
2023-02-17T00:51:21.771Z,99697.97
2023-02-17T00:53:50.299Z,99682.81
2023-02-17T00:56:18.718Z,99684.22
2023-02-17T00:58:46.629Z,99689.84
2023-02-17T01:01:14.536Z,99671.63
2023-02-17T01:03:42.714Z,99699.06
2023-02-17T01:06:22.496Z,99689.56
2023-02-17T01:08:50.930Z,99684.78
2023-02-17T01:11:27.004Z,99689.44
2023-02-17T01:13:56.673Z,99687.97
2023-02-17T01:16:28.885Z,99679.53
2023-02-17T01:19:00.139Z,99685.25
2023-02-17T01:21:30.320Z,99686.56
2023-02-17T01:24:00.916Z,99665.34
2023-02-17T01:26:32.056Z,99671.38
2023-02-17T01:29:03.793Z,99664.00
2023-02-17T01:31:31.960Z,99657.59
2023-02-17T01:34:01.771Z,99664.91
2023-02-17T01:36:29.882Z,99660.81
2023-02-17T01:38:57.803Z,99672.38
2023-02-17T01:41:28.223Z,99661.06
2023-02-17T01:44:16.356Z,99671.97
2023-02-17T01:46:47.271Z,99662.75
2023-02-17T01:49:30.624Z,99656.66
2023-02-17T01:52:10.178Z,99637.34
2023-02-17T01:54:47.786Z,99644.00
2023-02-17T01:57:19.528Z,99639.53
2023-02-17T01:59:48.619Z,99643.81
2023-02-17T02:02:17.045Z,99634.25
2023-02-17T02:04:48.551Z,99626.00
2023-02-17T02:07:42.976Z,99631.19
2023-02-17T02:10:12.692Z,99622.47
2023-02-17T02:12:42.455Z,99617.25
2023-02-17T02:15:23.069Z,99612.34
2023-02-17T02:18:00.264Z,99609.91
2023-02-17T02:20:40.085Z,99601.88
2023-02-17T02:23:11.013Z,99582.41
2023-02-17T02:26:17.434Z,99591.91
2023-02-17T02:29:06.103Z,99605.13
2023-02-17T02:31:58.639Z,99608.47
2023-02-17T02:34:35.290Z,99622.66
2023-02-17T02:37:25.492Z,99611.84
2023-02-17T02:39:55.522Z,99611.22
2023-02-17T02:42:25.738Z,99606.84
2023-02-17T02:44:53.859Z,99599.00
2023-02-17T02:47:49.989Z,99590.94
2023-02-17T02:50:56.135Z,99600.44
2023-02-17T02:53:51.714Z,99597.97
2023-02-17T02:56:34.570Z,99604.16
2023-02-17T02:59:42.933Z,99610.44
2023-02-17T03:02:36.923Z,99619.34
2023-02-17T03:05:46.632Z,99617.75
2023-02-17T03:08:27.681Z,99608.69
2023-02-17T03:10:56.932Z,99600.66
2023-02-17T03:13:25.869Z,99595.03
2023-02-17T03:15:53.839Z,99590.31
2023-02-17T03:18:21.738Z,99592.69
2023-02-17T03:20:57.009Z,99591.56
2023-02-17T03:23:26.514Z,99590.25
2023-02-17T03:25:54.403Z,99594.84
2023-02-17T03:28:22.395Z,99588.81
2023-02-17T03:30:50.579Z,99594.47
2023-02-17T03:33:18.601Z,99595.94
2023-02-17T03:35:46.490Z,99592.06
2023-02-17T03:38:14.491Z,99589.50
2023-02-17T03:40:42.474Z,99593.59
2023-02-17T03:43:10.328Z,99602.53
2023-02-17T03:45:38.425Z,99602.13
2023-02-17T03:48:06.296Z,99599.69
2023-02-17T03:50:34.331Z,99599.06
2023-02-17T03:53:02.267Z,99594.66
2023-02-17T03:55:30.129Z,99593.59
2023-02-17T03:57:57.981Z,99597.88
2023-02-17T04:00:25.851Z,99602.09
2023-02-17T04:02:53.747Z,99603.59
2023-02-17T04:05:21.901Z,99604.59
2023-02-17T04:07:50.504Z,99593.16
2023-02-17T04:10:18.665Z,99591.22
2023-02-17T04:12:46.590Z,99582.97
2023-02-17T04:15:14.441Z,99578.16
2023-02-17T04:17:42.327Z,99584.41
2023-02-17T04:20:10.871Z,99580.56
2023-02-17T04:22:38.737Z,99589.75
2023-02-17T04:25:06.586Z,99591.13
2023-02-17T04:27:34.612Z,99595.22
2023-02-17T04:30:03.781Z,99583.53
2023-02-17T04:32:31.693Z,99583.03
2023-02-17T04:34:59.566Z,99573.25
2023-02-17T04:37:27.556Z,99586.53
2023-02-17T04:39:55.430Z,99581.84
2023-02-17T04:42:23.580Z,99569.06
2023-02-17T04:44:51.468Z,99568.72
2023-02-17T04:47:19.361Z,99567.41
2023-02-17T04:49:47.892Z,99551.31
2023-02-17T04:52:15.766Z,99538.75
2023-02-17T04:54:43.627Z,99535.06
2023-02-17T04:57:11.520Z,99545.78
2023-02-17T04:59:39.419Z,99548.69
2023-02-17T05:02:07.370Z,99544.97
2023-02-17T05:04:35.360Z,99559.31
2023-02-17T05:07:03.338Z,99555.53
2023-02-17T05:09:31.254Z,99558.69
2023-02-17T05:11:59.226Z,99552.97
2023-02-17T05:14:27.321Z,99569.13
2023-02-17T05:16:55.415Z,99572.19
2023-02-17T05:19:23.358Z,99565.13
2023-02-17T05:21:51.493Z,99571.00
2023-02-17T05:24:19.364Z,99566.91
2023-02-17T05:26:47.861Z,99565.66
2023-02-17T05:29:16.405Z,99560.81
2023-02-17T05:31:44.493Z,99562.13
2023-02-17T05:34:12.869Z,99558.69
2023-02-17T05:36:40.735Z,99561.66
2023-02-17T05:39:09.065Z,99560.28
2023-02-17T05:41:37.301Z,99535.50
2023-02-17T05:44:05.150Z,99530.84
2023-02-17T05:46:33.083Z,99542.31
2023-02-17T05:49:01.040Z,99542.72
2023-02-17T05:51:28.935Z,99542.16
2023-02-17T05:53:56.809Z,99544.50
2023-02-17T05:56:24.700Z,99520.97
2023-02-17T05:58:52.555Z,99533.94
2023-02-17T06:01:20.633Z,99535.28
2023-02-17T06:03:48.707Z,99541.25
2023-02-17T06:06:17.076Z,99531.28
2023-02-17T06:08:44.950Z,99533.97
2023-02-17T06:11:13.047Z,99539.19
2023-02-17T06:13:41.104Z,99546.47
2023-02-17T06:16:09.397Z,99540.84
2023-02-17T06:18:37.820Z,99532.94
2023-02-17T06:21:05.905Z,99539.88
2023-02-17T06:23:33.759Z,99531.03
2023-02-17T06:26:01.713Z,99536.19
2023-02-17T06:28:29.590Z,99522.09
2023-02-17T06:30:57.485Z,99527.94
2023-02-17T06:33:25.380Z,99525.78
2023-02-17T06:35:53.282Z,99526.06
2023-02-17T06:38:21.224Z,99525.97
2023-02-17T06:40:49.079Z,99518.50
2023-02-17T06:43:17.031Z,99513.88
2023-02-17T06:45:45.010Z,99517.47
2023-02-17T06:48:13.090Z,99503.88
2023-02-17T06:50:41.509Z,99511.22
2023-02-17T06:53:09.384Z,99510.50
2023-02-17T06:55:39.021Z,99532.47
2023-02-17T06:58:08.326Z,99531.63
2023-02-17T07:00:36.324Z,99537.97
2023-02-17T07:03:04.310Z,99540.13
2023-02-17T07:05:35.316Z,99544.22
2023-02-17T07:08:04.563Z,99530.72
2023-02-17T07:10:32.841Z,99532.31
2023-02-17T07:13:00.686Z,99535.06
2023-02-17T07:15:28.816Z,99530.22
2023-02-17T07:17:56.676Z,99523.50
2023-02-17T07:20:24.981Z,99523.78
2023-02-17T07:22:52.885Z,99527.38
2023-02-17T07:25:20.753Z,99518.72
2023-02-17T07:27:48.651Z,99528.47
2023-02-17T07:30:16.686Z,99516.25
2023-02-17T07:32:44.530Z,99514.94
2023-02-17T07:35:12.366Z,99502.47
2023-02-17T07:37:40.290Z,99515.06
2023-02-17T07:40:08.709Z,99509.66
2023-02-17T07:42:36.582Z,99496.09
2023-02-17T07:45:05.180Z,99502.13
2023-02-17T07:47:33.467Z,99497.28
2023-02-17T07:50:01.607Z,99500.03
2023-02-17T07:52:29.529Z,99499.78
2023-02-17T07:54:57.451Z,99500.88
2023-02-17T07:57:25.400Z,99496.53
2023-02-17T07:59:53.296Z,99486.22
2023-02-17T08:02:21.334Z,99493.84
2023-02-17T08:04:49.245Z,99490.59
2023-02-17T08:07:17.126Z,99489.78
2023-02-17T08:10:03.637Z,99504.75
2023-02-17T08:12:50.245Z,99522.41
2023-02-17T08:15:18.096Z,99532.44
2023-02-17T08:17:46.048Z,99530.56
2023-02-17T08:20:15.773Z,99516.97
2023-02-17T08:22:43.709Z,99522.13
2023-02-17T08:25:11.611Z,99520.50
2023-02-17T08:27:39.467Z,99520.50
2023-02-17T08:30:07.995Z,99508.00
2023-02-17T08:32:35.907Z,99507.19
2023-02-17T08:35:03.927Z,99498.19
2023-02-17T08:37:32.238Z,99503.34
2023-02-17T08:40:00.249Z,99513.94
2023-02-17T08:42:28.459Z,99510.41
2023-02-17T08:44:56.338Z,99518.56
2023-02-17T08:47:24.265Z,99527.78
2023-02-17T08:49:52.196Z,99523.13
2023-02-17T08:52:20.394Z,99527.00
2023-02-17T08:54:49.958Z,99520.75
2023-02-17T08:57:19.335Z,99510.94
2023-02-17T08:59:48.165Z,99511.19
2023-02-17T09:02:17.034Z,99499.75
2023-02-17T09:04:45.139Z,99487.22
2023-02-17T09:07:14.629Z,99505.22
2023-02-17T09:09:42.976Z,99523.66
2023-02-17T09:12:10.890Z,99518.81
2023-02-17T09:14:38.808Z,99513.66
2023-02-17T09:17:06.705Z,99503.50
2023-02-17T09:19:38.631Z,99513.53
2023-02-17T09:22:07.088Z,99509.72
2023-02-17T09:24:38.545Z,99512.97
2023-02-17T09:27:06.554Z,99505.38
2023-02-17T09:29:34.662Z,99513.19
2023-02-17T09:32:03.132Z,99530.94
2023-02-17T09:34:31.126Z,99520.81
2023-02-17T09:36:59.063Z,99532.13
2023-02-17T09:39:26.890Z,99528.94
2023-02-17T09:41:55.512Z,99522.38
2023-02-17T09:44:41.110Z,99526.25
2023-02-17T09:47:19.377Z,99538.16
2023-02-17T09:49:52.750Z,99518.66
2023-02-17T09:52:31.825Z,99503.25
2023-02-17T09:55:01.796Z,99515.72
2023-02-17T09:57:40.395Z,99524.03
2023-02-17T10:00:13.182Z,99518.56
2023-02-17T10:02:53.311Z,99520.13
2023-02-17T10:05:25.975Z,99530.47
2023-02-17T10:08:04.155Z,99530.16
2023-02-17T10:10:40.559Z,99525.22
2023-02-17T10:13:09.661Z,99520.16
2023-02-17T10:15:45.455Z,99517.19
2023-02-17T10:18:20.478Z,99516.16
2023-02-17T10:21:00.178Z,99507.34
2023-02-17T10:23:29.733Z,99496.50
2023-02-17T10:26:20.267Z,99502.34
2023-02-17T10:29:19.534Z,99507.00
2023-02-17T10:31:57.101Z,99501.00
2023-02-17T10:34:45.321Z,99497.06
2023-02-17T10:37:15.831Z,99499.72
2023-02-17T10:39:49.932Z,99489.75
2023-02-17T10:42:26.934Z,99502.50
2023-02-17T10:45:02.546Z,99489.44
2023-02-17T10:47:31.308Z,99490.38
2023-02-17T10:50:01.402Z,99496.84
2023-02-17T10:52:40.215Z,99483.69
2023-02-17T10:55:23.268Z,99473.63
2023-02-17T11:02:33.775Z,99451.28
2023-02-17T11:05:01.614Z,99448.72
2023-02-17T11:07:41.184Z,99465.38
2023-02-17T11:10:31.359Z,99448.28
2023-02-17T11:13:01.115Z,99446.66
2023-02-17T11:15:35.210Z,99447.06
2023-02-17T11:18:20.907Z,99436.69
2023-02-17T11:20:48.796Z,99423.81
2023-02-17T11:23:16.656Z,99425.41
2023-02-17T11:25:57.147Z,99411.00
2023-02-17T11:28:26.208Z,99404.69
2023-02-17T11:30:58.144Z,99412.75
2023-02-17T11:33:33.917Z,99404.03
2023-02-17T11:36:03.092Z,99382.72
2023-02-17T11:38:43.774Z,99390.53
2023-02-17T11:41:11.868Z,99394.88
2023-02-17T11:43:51.901Z,99387.78
2023-02-17T11:46:28.828Z,99383.63
2023-02-17T11:49:25.143Z,99382.75
2023-02-17T11:51:58.815Z,99373.66
2023-02-17T11:54:36.382Z,99363.75
2023-02-17T11:57:30.451Z,99363.22
2023-02-17T12:00:19.772Z,99357.06
2023-02-17T12:03:15.454Z,99356.44
2023-02-17T12:06:16.333Z,99364.94
2023-02-17T12:09:14.972Z,99361.41
2023-02-17T12:12:01.686Z,99350.69
2023-02-17T12:14:35.605Z,99354.53
2023-02-17T12:17:25.067Z,99346.19
2023-02-17T12:20:20.769Z,99339.22
2023-02-17T12:23:06.568Z,99337.38
2023-02-17T12:25:56.778Z,99328.06
2023-02-17T12:28:43.025Z,99318.94
2023-02-17T12:31:38.463Z,99314.16
2023-02-17T12:34:23.990Z,99316.72
2023-02-17T12:36:53.147Z,99312.66
2023-02-17T12:39:42.238Z,99301.19
2023-02-17T12:42:10.049Z,99301.09
2023-02-17T12:44:42.798Z,99290.34
2023-02-17T12:47:16.417Z,99294.22
2023-02-17T12:49:53.369Z,99286.00
2023-02-17T12:52:29.887Z,99277.38
2023-02-17T12:55:20.924Z,99280.47
2023-02-17T12:57:58.325Z,99276.75
2023-02-17T13:00:33.666Z,99264.84
2023-02-17T13:03:03.749Z,99275.97
2023-02-17T13:05:36.804Z,99271.25
2023-02-17T13:08:19.184Z,99273.75
2023-02-17T13:10:47.049Z,99275.78
2023-02-17T13:13:30.103Z,99268.25
2023-02-17T13:16:08.091Z,99263.03
2023-02-17T13:18:38.995Z,99269.53
2023-02-17T13:21:24.792Z,99253.38
2023-02-17T13:24:07.096Z,99253.38
2023-02-17T13:26:40.138Z,99251.13
2023-02-17T13:29:23.268Z,99240.41
2023-02-17T13:32:03.779Z,99240.50
2023-02-17T13:34:42.416Z,99232.03
2023-02-17T13:37:33.797Z,99247.03
2023-02-17T13:40:22.840Z,99248.31
2023-02-17T13:42:59.469Z,99244.06
2023-02-17T13:45:35.787Z,99250.91
2023-02-17T13:48:25.703Z,99249.78
2023-02-17T13:50:59.770Z,99248.03
2023-02-17T13:53:29.602Z,99251.41
2023-02-17T13:56:22.603Z,99248.19
2023-02-17T13:58:50.434Z,99242.91
2023-02-17T14:01:27.113Z,99247.84
2023-02-17T14:03:56.325Z,99248.78
2023-02-17T14:06:34.132Z,99252.44
2023-02-17T14:09:14.643Z,99254.97
2023-02-17T14:11:43.009Z,99247.72
2023-02-17T14:14:10.908Z,99253.53
2023-02-17T14:16:41.647Z,99253.53
2023-02-17T14:19:19.020Z,99261.75
2023-02-17T14:22:02.485Z,99260.81
2023-02-17T14:24:35.926Z,99255.31
2023-02-17T14:27:08.995Z,99255.13
2023-02-17T14:29:40.943Z,99243.03
2023-02-17T14:32:33.566Z,99246.75
2023-02-17T14:35:13.472Z,99243.50
2023-02-17T14:37:42.346Z,99243.66
2023-02-17T14:40:20.232Z,99243.97
2023-02-17T14:42:48.136Z,99236.09
2023-02-17T14:45:18.046Z,99230.75
2023-02-17T14:47:46.385Z,99226.38
2023-02-17T14:50:16.164Z,99233.00
2023-02-17T14:52:46.856Z,99230.88
2023-02-17T14:55:34.301Z,99228.63
2023-02-17T14:58:02.743Z,99227.66
2023-02-17T15:00:30.807Z,99232.66
2023-02-17T15:02:58.652Z,99242.44
2023-02-17T15:05:26.525Z,99235.34
2023-02-17T15:07:54.413Z,99237.63
2023-02-17T15:10:27.241Z,99219.78
2023-02-17T15:12:56.059Z,99231.16
2023-02-17T15:15:23.914Z,99221.69
2023-02-17T15:17:51.793Z,99233.63
2023-02-17T15:20:19.881Z,99244.88
2023-02-17T15:22:52.697Z,99244.75
2023-02-17T15:25:24.432Z,99252.84
2023-02-17T15:27:52.386Z,99253.19
2023-02-17T15:30:21.548Z,99257.56
2023-02-17T15:32:49.469Z,99258.22
2023-02-17T15:35:24.145Z,99258.91
2023-02-17T15:37:53.266Z,99258.19
2023-02-17T15:40:25.204Z,99262.72
2023-02-17T15:42:57.236Z,99256.31
2023-02-17T15:45:25.713Z,99255.34
2023-02-17T15:48:03.875Z,99248.41
2023-02-17T15:50:32.404Z,99241.75
2023-02-17T15:53:00.951Z,99235.78
2023-02-17T15:55:29.664Z,99237.56
2023-02-17T15:58:00.035Z,99239.81
2023-02-17T16:00:32.474Z,99236.56
2023-02-17T16:03:03.952Z,99245.91
2023-02-17T16:05:33.745Z,99246.53
2023-02-17T16:08:02.163Z,99244.56
2023-02-17T16:10:32.428Z,99255.75
2023-02-17T16:13:03.285Z,99252.03
2023-02-17T16:15:33.193Z,99251.13
2023-02-17T16:18:02.068Z,99255.03
2023-02-17T16:20:34.858Z,99254.72
2023-02-17T16:23:03.857Z,99261.34
2023-02-17T16:25:32.926Z,99257.78
2023-02-17T16:28:01.263Z,99267.50
2023-02-17T16:30:35.724Z,99265.19
2023-02-17T16:33:04.303Z,99260.13
2023-02-17T16:35:33.380Z,99256.09
2023-02-17T16:38:05.538Z,99261.25
2023-02-17T16:40:36.300Z,99264.63
2023-02-17T16:43:04.704Z,99252.53
2023-02-17T16:45:33.822Z,99247.66
2023-02-17T16:48:02.093Z,99255.31
2023-02-17T16:50:33.588Z,99258.63
2023-02-17T16:53:04.437Z,99254.47
2023-02-17T16:55:34.809Z,99247.03
2023-02-17T16:58:03.774Z,99231.53
2023-02-17T17:00:33.187Z,99230.72
2023-02-17T17:03:01.060Z,99238.16
2023-02-17T17:05:29.514Z,99257.31
2023-02-17T17:07:57.513Z,99248.16
2023-02-17T17:10:28.515Z,99255.56
2023-02-17T17:12:57.394Z,99252.69
2023-02-17T17:15:26.044Z,99258.47
2023-02-17T17:18:01.151Z,99264.16
2023-02-17T17:20:34.099Z,99245.41
2023-02-17T17:23:04.446Z,99250.34
2023-02-17T17:25:37.423Z,99245.81
2023-02-17T17:28:06.010Z,99248.25
2023-02-17T17:30:35.790Z,99239.97
2023-02-17T17:33:04.318Z,99246.72
2023-02-17T17:35:32.848Z,99247.56
2023-02-17T17:38:01.043Z,99238.00
2023-02-17T17:40:48.744Z,99237.66
2023-02-17T17:43:20.442Z,99228.97
2023-02-17T17:45:49.963Z,99232.34
2023-02-17T17:48:20.266Z,99219.88
2023-02-17T17:50:49.809Z,99234.09
2023-02-17T17:53:17.810Z,99240.22
2023-02-17T17:55:47.421Z,99234.41
2023-02-17T17:58:17.232Z,99238.34
2023-02-17T18:00:45.115Z,99229.13
2023-02-17T18:03:12.979Z,99225.44
2023-02-17T18:05:40.962Z,99223.69
2023-02-17T18:08:09.376Z,99223.69
2023-02-17T18:10:39.247Z,99223.69
2023-02-17T18:13:09.138Z,99213.31
2023-02-17T18:15:37.273Z,99204.13
2023-02-17T18:18:05.830Z,99206.06
2023-02-17T18:20:33.889Z,99208.16
2023-02-17T18:23:01.865Z,99218.81
2023-02-17T18:25:29.896Z,99206.91
2023-02-17T18:27:57.939Z,99208.19
2023-02-17T18:30:27.189Z,99202.84
2023-02-17T18:32:55.153Z,99195.81
2023-02-17T18:35:23.007Z,99193.00
2023-02-17T18:37:51.286Z,99202.28
2023-02-17T18:40:21.124Z,99190.28
2023-02-17T18:42:49.062Z,99194.63
2023-02-17T18:45:17.555Z,99186.28
2023-02-17T18:47:46.359Z,99172.88
2023-02-17T18:50:15.532Z,99165.78
2023-02-17T18:52:44.028Z,99166.25
2023-02-17T18:55:12.117Z,99177.09
2023-02-17T18:57:40.055Z,99180.00
2023-02-17T19:00:10.152Z,99179.66
2023-02-17T19:02:38.507Z,99183.84
2023-02-17T19:05:10.729Z,99174.97
2023-02-17T19:07:38.581Z,99169.97
2023-02-17T19:10:07.102Z,99169.81
2023-02-17T19:12:35.604Z,99172.06
2023-02-17T19:15:04.515Z,99169.50
2023-02-17T19:17:32.691Z,99174.50
2023-02-17T19:20:00.790Z,99176.25
2023-02-17T19:22:29.186Z,99177.88
2023-02-17T19:24:57.260Z,99179.03
2023-02-17T19:27:25.071Z,99175.47
2023-02-17T19:29:53.133Z,99182.25
2023-02-17T19:32:21.166Z,99178.38
2023-02-17T19:34:49.077Z,99178.84
2023-02-17T19:37:17.035Z,99179.19
2023-02-17T19:39:45.527Z,99175.31
2023-02-17T19:42:13.500Z,99184.03
2023-02-17T19:44:41.633Z,99182.25
2023-02-17T19:47:10.327Z,99184.19
2023-02-17T19:49:38.442Z,99185.47
2023-02-17T19:52:06.403Z,99183.69
2023-02-17T19:54:34.297Z,99185.50
2023-02-17T19:57:02.477Z,99202.28
2023-02-17T19:59:33.081Z,99198.41
2023-02-17T20:02:01.341Z,99199.84
2023-02-17T20:04:30.646Z,99209.09
2023-02-17T20:06:58.825Z,99200.19
2023-02-17T20:09:26.905Z,99218.94
2023-02-17T20:11:54.805Z,99207.22
2023-02-17T20:14:22.717Z,99212.72
2023-02-17T20:16:53.324Z,99214.22
2023-02-17T20:19:21.604Z,99217.75
2023-02-17T20:21:49.504Z,99215.66
2023-02-17T20:24:17.420Z,99217.75
2023-02-17T20:26:47.512Z,99206.59
2023-02-17T20:29:15.556Z,99205.44
2023-02-17T20:31:44.756Z,99198.19
2023-02-17T20:34:31.236Z,99202.09
2023-02-17T20:37:00.156Z,99192.53
2023-02-17T20:39:28.750Z,99184.81
2023-02-17T20:41:57.027Z,99168.84
2023-02-17T20:44:27.756Z,99159.13
2023-02-17T20:46:58.110Z,99170.28
2023-02-17T20:49:26.735Z,99176.44
2023-02-17T20:51:55.098Z,99182.09
2023-02-17T20:54:25.507Z,99180.97
2023-02-17T20:56:53.606Z,99171.25
2023-02-17T20:59:21.397Z,99179.84
2023-02-17T21:01:49.875Z,99193.91
2023-02-17T21:04:17.801Z,99200.69
2023-02-17T21:06:47.374Z,99203.13
2023-02-17T21:09:17.234Z,99204.88
2023-02-17T21:11:46.769Z,99196.63
2023-02-17T21:14:15.265Z,99190.50
2023-02-17T21:16:43.248Z,99192.59
2023-02-17T21:19:11.129Z,99189.53
2023-02-17T21:21:41.080Z,99185.63
2023-02-17T21:24:09.190Z,99173.81
2023-02-17T21:26:37.118Z,99179.00
2023-02-17T21:29:05.144Z,99168.44
2023-02-17T21:31:33.491Z,99175.94
2023-02-17T21:34:01.480Z,99166.06
2023-02-17T21:36:29.713Z,99170.91
2023-02-17T21:38:58.597Z,99168.66
2023-02-17T21:41:27.814Z,99173.34
2023-02-17T21:44:15.002Z,99179.31
2023-02-17T21:46:43.344Z,99186.91
2023-02-17T21:49:11.670Z,99191.56
2023-02-17T21:51:40.307Z,99181.03
2023-02-17T21:54:09.421Z,99194.34
2023-02-17T21:56:37.750Z,99202.91
2023-02-17T21:59:05.747Z,99209.50
2023-02-17T22:01:34.273Z,99204.44
2023-02-17T22:04:02.834Z,99210.28
2023-02-17T22:06:34.479Z,99202.13
2023-02-17T22:09:02.718Z,99201.59
2023-02-17T22:11:32.705Z,99219.56
2023-02-17T22:14:07.002Z,99216.63
2023-02-17T22:16:36.028Z,99235.13
2023-02-17T22:19:06.305Z,99223.81
2023-02-17T22:21:34.831Z,99234.72
2023-02-17T22:24:02.733Z,99232.06
2023-02-17T22:26:31.650Z,99239.34
2023-02-17T22:28:59.574Z,99246.59
2023-02-17T22:31:29.404Z,99238.00
2023-02-17T22:33:59.513Z,99229.22
2023-02-17T22:36:27.975Z,99229.75
2023-02-17T22:38:56.523Z,99238.19
2023-02-17T22:41:25.760Z,99239.50
2023-02-17T22:43:54.395Z,99238.13
2023-02-17T22:46:24.289Z,99226.22
2023-02-17T22:48:52.387Z,99229.88
2023-02-17T22:51:23.810Z,99227.34
2023-02-17T22:53:51.915Z,99227.34
2023-02-17T22:56:21.058Z,99232.50
2023-02-17T22:58:53.799Z,99227.13
2023-02-17T23:01:22.776Z,99240.31
2023-02-17T23:03:53.908Z,99220.19
2023-02-17T23:06:28.443Z,99222.66
2023-02-17T23:08:57.470Z,99218.81
2023-02-17T23:11:47.749Z,99216.94
2023-02-17T23:14:36.549Z,99229.16
2023-02-17T23:17:14.126Z,99232.06
2023-02-17T23:19:42.559Z,99245.19
2023-02-17T23:22:15.949Z,99230.09
2023-02-17T23:24:45.781Z,99244.84
2023-02-17T23:27:14.353Z,99230.44
2023-02-17T23:29:42.308Z,99233.16
2023-02-17T23:32:10.161Z,99244.50
2023-02-17T23:34:38.356Z,99255.06
2023-02-17T23:37:06.181Z,99244.72
2023-02-17T23:39:36.899Z,99245.31
2023-02-17T23:42:05.190Z,99252.31
2023-02-17T23:44:33.040Z,99257.16
2023-02-17T23:47:00.852Z,99236.59
2023-02-17T23:49:28.728Z,99258.66
2023-02-17T23:51:56.554Z,99258.91
2023-02-17T23:54:25.023Z,99260.19
2023-02-17T23:56:52.831Z,99256.84
2023-02-17T23:59:20.671Z,99243.38
